To NAV CANADA Home Page Login to a new session Search on AWWS site Feedback and Comments Disclaimer Vers la page française équivalente Tips FAQ What's new on the site To the Forecasts and Observations / NOTAM section To "File a Flight Plan" website Publications and other links Update of the User's profile FIC Telephone Numbers My Weather Data Folder Route Weather Data Regional Weather Data Local Weather Data To the Forecasts and Observations / NOTAM section
Request Generated 03/23/2017 at 00:16:08 UTC . Weather information available at that time is displayed.

METAR/TAF

TORONTO/BUTTONVILLE MUNICIPAL/ON    

METAR CYKZ 230000Z 33007KT 15SM FEW260 M06/M13 A3050 RMK CI1 CI TR
SLP344=
METAR CYKZ 222300Z 34011KT 15SM SKC M05/M14 A3050 RMK SLP342=
METAR CYKZ 222200Z 32014G21KT 15SM FEW040 M04/M15 A3050 RMK CU1 CU TR
SLP341=

TAF CYKZ 222338Z 2300/2312 34012KT P6SM SKC
BECMG 2302/2304 30005KT
RMK NXT FCST BY 230600Z=
Your time UTC time
Weather data provided by Environment Canada and NAV CANADA